Reklama

Seznam meteostanic a jejich METAR

Vyhledat místa podle abecedy:
A B C D E F G H I J K L M N O P Q R S T U V W X Y Z

Filtrovat:

ID stanice:
a/nebo
Název místa (fulltext):
 
Místo (ID)Naposledy načteno 
Doksany - Litoměřice (Doksany) 15.12.2019 21:00 UTC Zobrazit data
Místo: Doksany - Litoměřice
Teplota: 6 °C (pocitová: 3.1 °C)
Vítr: 1 m/s z(e) 0°
Počasí: zataženo
Dohlednost: 35 km
Zákl. oblačnosti: 5/8 1020 m;7/8 3300 m
Vlhkost: 87%
Dukovany (Dukovany) 15.12.2019 21:00 UTC Zobrazit data
Místo: Dukovany
Teplota: 2 °C (pocitová: -1.8 °C)
Vítr: 1 m/s z(e) 0°
Počasí: skoro zataženo
Dohlednost: 14 km
Zákl. oblačnosti: 1/8 360 m;6/8 2700 m
Vlhkost: 93%
Dakar (GOOY) 15.12.2019 21:00 UTC Zobrazit METAR
GOOY 152100Z 32004KT 8000 NSC 23/21 Q1012
Damascus (OSDI) 15.12.2019 21:00 UTC Zobrazit METAR
OSDI 152100Z 03006KT 9999 FEW030 SCT100 08/05 Q1020
Debrecen (LHDC) 15.12.2019 20:45 UTC Zobrazit METAR
LHDC 152045Z AUTO 18006KT 8000 NSC 05/04 Q1017 NOSIG
Delhi (VIDP) 15.12.2019 15:00 UTC Zobrazit METAR
VIDP 151500Z 25005KT 2000 BR FEW100 13/12 Q1019 NOSIG
Dhaka (VGZR) Zatím nenačteno  
Diego Garcia (FJDG) 15.12.2019 18:55 UTC Zobrazit METAR
FJDG 151855Z 05007KT 9999 FEW022 SCT100 SCT250 28/23 A2982 RMK SLP095 T02770233
Djibouti (HDAM) 15.12.2019 16:00 UTC Zobrazit METAR
HDAM 151600Z 09003KT 9999 FEW020 27/23 Q1014
Dnipropetrovs'k (UKDD) 12.08.2013 14:00 UTC Zobrazit METAR
UKDD 121400Z CAVOK 33/13 Q1012 08090070 NOSIG
Dodoma (HTDO) 15.12.2019 20:00 UTC Zobrazit METAR
HTDO 152000Z 09007KT 9999 FEW022 23/18 Q1017 NOSIG
Doha (OTBD) 15.12.2019 20:00 UTC Zobrazit METAR
OTBD 152000Z 09014KT 9999 FEW040 SCT100 22/18 Q1014 NOSIG
Dortmund (EDLW) 15.12.2019 20:50 UTC Zobrazit METAR
EDLW 152050Z 19011KT CAVOK 06/01 Q1007
Dresden (EDDC) 15.12.2019 20:50 UTC Zobrazit METAR
EDDC 152050Z 23009KT 200V260 CAVOK 07/03 Q1009 NOSIG
Dublin (EIDW) 15.12.2019 21:00 UTC Zobrazit METAR
EIDW 152100Z 22015KT 190V250 9999 FEW017 SCT250 05/M00 Q0986 NOSIG
Dubrovnik (LDDU) 15.12.2019 21:00 UTC Zobrazit METAR
LDDU 152100Z 08008KT CAVOK 12/05 Q1022 NOSIG
Dushanbe (UTDD) Zatím nenačteno  
Dusseldorf (EDDL) 15.12.2019 20:50 UTC Zobrazit METAR
EDDL 152050Z 15007KT CAVOK 05/01 Q1007 NOSIG
Dzaoudzi (FMCZ) 15.12.2019 19:00 UTC Zobrazit METAR
FMCZ 151900Z AUTO 27004KT CAVOK 29/25 Q1010 NOSIG
Reklama

Počasí na Váš email

Emaily jsou bez reklamy a bez spamu



Odhlásit newsletter

Reklama


Lunární kalendář

  • 19.12.
  • 26.12.
  • 03.01.
  • 10.01.



Reklama


Reklama
Povinné ručení
Reklama



Reklama